Time,TemperatureF,DewpointF,PressureIn,WindDirection,WindDirectionDegrees,WindSpeedMPH,WindSpeedGustMPH,Humidity,HourlyPrecipIn,Conditions,Clouds,dailyrainin,SoftwareType,DateUTC
2013-01-02 00:01:00,6.0,4.0,30.03,SSE,157,3.0,5.0,90,0.00,,,0.04,,2013-01-02 07:01:00,
2013-01-02 00:12:00,6.0,4.0,30.03,SSE,157,3.0,5.0,90,0.00,,,0.04,,2013-01-02 07:12:00,
2013-01-02 00:22:00,6.0,4.0,30.03,SSE,157,3.0,4.0,90,0.00,,,0.04,,2013-01-02 07:22:00,
2013-01-02 00:32:00,7.0,3.0,30.03,SE,135,2.0,3.0,85,0.00,,,0.04,,2013-01-02 07:32:00,
2013-01-02 00:42:00,7.0,3.0,30.03,SE,135,2.0,3.0,85,0.00,,,0.04,,2013-01-02 07:42:00,
2013-01-02 00:52:00,7.0,3.0,30.03,ESE,112,4.0,4.0,85,0.00,,,0.04,,2013-01-02 07:52:00,
2013-01-02 01:01:00,6.0,2.0,30.03,ESE,112,2.0,3.0,85,0.00,,,0.04,,2013-01-02 08:01:00,
2013-01-02 01:11:00,6.0,2.0,30.03,ESE,112,2.0,3.0,85,0.00,,,0.04,,2013-01-02 08:11:00,
2013-01-02 01:21:00,7.0,4.0,30.03,SSE,157,2.0,2.0,89,0.00,,,0.04,,2013-01-02 08:21:00,
2013-01-02 01:32:00,7.0,4.0,30.03,SSE,157,0.0,0.0,86,0.00,,,0.04,,2013-01-02 08:32:00,
2013-01-02 01:42:00,7.0,4.0,30.03,SSE,157,0.0,0.0,86,0.00,,,0.04,,2013-01-02 08:42:00,
2013-01-02 01:52:00,7.0,4.0,30.03,SW,225,2.0,2.0,86,0.00,,,0.04,,2013-01-02 08:52:00,
2013-01-02 02:02:00,7.0,4.0,30.03,SSW,202,2.0,3.0,89,0.00,,,0.04,,2013-01-02 09:02:00,
2013-01-02 02:12:00,7.0,4.0,30.03,SSW,202,2.0,3.0,89,0.00,,,0.04,,2013-01-02 09:12:00,
2013-01-02 02:22:00,7.0,4.0,30.03,SSW,202,1.0,2.0,87,0.00,,,0.04,,2013-01-02 09:22:00,
2013-01-02 02:32:00,7.0,4.0,30.03,SSE,157,2.0,2.0,89,0.00,,,0.04,,2013-01-02 09:32:00,
2013-01-02 02:42:00,7.0,4.0,30.03,SSE,157,2.0,2.0,89,0.00,,,0.04,,2013-01-02 09:42:00,
2013-01-02 02:52:00,6.0,3.0,30.03,SSE,157,2.0,2.0,87,0.00,,,0.04,,2013-01-02 09:52:00,
2013-01-02 03:01:00,5.0,2.0,30.03,SSE,157,2.0,2.0,88,0.00,,,0.04,,2013-01-02 10:01:00,
2013-01-02 03:12:00,5.0,2.0,30.03,South,180,2.0,3.0,89,0.00,,,0.04,,2013-01-02 10:12:00,
2013-01-02 03:22:00,5.0,2.0,30.03,South,180,2.0,3.0,89,0.00,,,0.04,,2013-01-02 10:22:00,
2013-01-02 03:32:00,3.0,1.0,30.03,South,180,3.0,4.0,90,0.00,,,0.04,,2013-01-02 10:32:00,
2013-01-02 03:42:00,3.0,1.0,30.03,South,180,3.0,4.0,90,0.00,,,0.04,,2013-01-02 10:42:00,
2013-01-02 03:52:00,2.0,0.0,30.03,South,180,2.0,3.0,91,0.00,,,0.04,,2013-01-02 10:52:00,
2013-01-02 04:02:00,3.0,1.0,30.03,South,180,4.0,4.0,91,0.00,,,0.04,,2013-01-02 11:02:00,
2013-01-02 04:11:00,3.0,1.0,30.03,South,180,4.0,4.0,91,0.00,,,0.04,,2013-01-02 11:11:00,
2013-01-02 04:22:00,3.0,1.0,30.02,SSE,157,3.0,3.0,91,0.00,,,0.04,,2013-01-02 11:22:00,
2013-01-02 04:32:00,6.0,4.0,30.01,SE,135,1.0,2.0,92,0.00,,,0.04,,2013-01-02 11:32:00,
2013-01-02 04:42:00,6.0,4.0,30.01,SE,135,1.0,2.0,92,0.00,,,0.04,,2013-01-02 11:42:00,
2013-01-02 04:52:00,5.0,2.0,30.01,SSE,157,2.0,2.0,85,0.00,,,0.04,,2013-01-02 11:52:00,
2013-01-02 05:02:00,1.0,-2.0,30.01,SSE,157,3.0,4.0,88,0.00,,,0.04,,2013-01-02 12:02:00,
2013-01-02 05:12:00,1.0,-2.0,30.01,SSE,157,3.0,4.0,88,0.00,,,0.04,,2013-01-02 12:12:00,
2013-01-02 05:22:00,-2.0,-4.0,30.00,SSE,157,4.0,4.0,89,0.00,,,0.04,,2013-01-02 12:22:00,
2013-01-02 05:32:00,-1.0,-3.0,30.00,South,180,3.0,4.0,91,0.00,,,0.04,,2013-01-02 12:32:00,
2013-01-02 05:42:00,-1.0,-3.0,30.00,South,180,3.0,4.0,91,0.00,,,0.04,,2013-01-02 12:42:00,
2013-01-02 05:52:00,-3.0,-6.0,30.00,South,180,4.0,4.0,88,0.00,,,0.04,,2013-01-02 12:52:00,
2013-01-02 06:02:00,-2.0,-4.0,29.98,SSE,157,4.0,4.0,91,0.00,,,0.04,,2013-01-02 13:02:00,
2013-01-02 06:12:00,-2.0,-4.0,29.98,SSE,157,4.0,4.0,91,0.00,,,0.04,,2013-01-02 13:12:00,
2013-01-02 06:22:00,-1.0,-3.0,29.98,SSE,157,4.0,4.0,89,0.00,,,0.04,,2013-01-02 13:22:00,
2013-01-02 06:32:00,-2.0,-4.0,29.98,SSE,157,3.0,4.0,91,0.00,,,0.04,,2013-01-02 13:32:00,
2013-01-02 06:42:00,-2.0,-4.0,29.98,SSE,157,3.0,4.0,91,0.00,,,0.04,,2013-01-02 13:42:00,
2013-01-02 06:52:00,-1.0,-3.0,29.98,SSE,157,0.0,2.0,90,0.00,,,0.04,,2013-01-02 13:52:00,
2013-01-02 07:01:00,0.0,-2.0,29.98,SE,135,2.0,2.0,91,0.00,,,0.04,,2013-01-02 14:01:00,
2013-01-02 07:12:00,0.0,-2.0,29.98,SE,135,2.0,2.0,91,0.00,,,0.04,,2013-01-02 14:12:00,
2013-01-02 07:22:00,0.0,-3.0,29.98,SSE,157,3.0,4.0,87,0.00,,,0.04,,2013-01-02 14:22:00,
2013-01-02 07:32:00,-1.0,-4.0,30.00,SSE,157,2.0,3.0,87,0.00,,,0.04,,2013-01-02 14:32:00,
2013-01-02 07:42:00,-1.0,-4.0,30.00,SSE,157,2.0,3.0,87,0.00,,,0.04,,2013-01-02 14:42:00,
2013-01-02 07:53:00,0.0,-3.0,30.01,SSE,157,2.0,3.0,88,0.00,,,0.04,,2013-01-02 14:53:00,
2013-01-02 08:02:00,1.0,-3.0,30.01,SSE,157,2.0,2.0,84,0.00,,,0.04,,2013-01-02 15:02:00,
2013-01-02 08:11:00,1.0,-3.0,30.01,SSE,157,2.0,2.0,84,0.00,,,0.04,,2013-01-02 15:11:00,
2013-01-02 08:22:00,0.0,-4.0,30.03,SSE,157,4.0,4.0,82,0.00,,,0.04,,2013-01-02 15:22:00,
2013-01-02 08:32:00,-1.0,-4.0,30.03,SSE,157,3.0,4.0,87,0.00,,,0.04,,2013-01-02 15:32:00,
2013-01-02 08:42:00,-1.0,-4.0,30.03,SSE,157,3.0,4.0,87,0.00,,,0.04,,2013-01-02 15:42:00,
2013-01-02 08:52:00,0.0,-3.0,30.03,SSE,157,4.0,4.0,87,0.00,,,0.04,,2013-01-02 15:52:00,
2013-01-02 09:02:00,1.0,-2.0,30.03,SSE,157,2.0,3.0,87,0.00,,,0.04,,2013-01-02 16:02:00,
2013-01-02 09:11:00,1.0,-2.0,30.03,SSE,157,2.0,3.0,87,0.00,,,0.04,,2013-01-02 16:11:00,
2013-01-02 09:22:00,4.0,0.0,30.06,SE,135,2.0,2.0,82,0.00,,,0.04,,2013-01-02 16:22:00,
2013-01-02 09:32:00,6.0,2.0,30.06,SSE,157,2.0,3.0,85,0.00,,,0.04,,2013-01-02 16:32:00,
2013-01-02 09:42:00,6.0,2.0,30.06,SSE,157,2.0,3.0,85,0.00,,,0.04,,2013-01-02 16:42:00,
2013-01-02 09:53:00,8.0,4.0,30.07,SSE,157,2.0,2.0,82,0.00,,,0.04,,2013-01-02 16:53:00,
2013-01-02 10:02:00,10.0,6.0,30.08,South,180,1.0,2.0,82,0.00,,,0.04,,2013-01-02 17:02:00,
2013-01-02 10:12:00,14.0,9.0,30.08,South,180,2.0,2.0,81,0.00,,,0.04,,2013-01-02 17:12:00,
2013-01-02 10:22:00,14.0,9.0,30.08,South,180,2.0,2.0,81,0.00,,,0.04,,2013-01-02 17:22:00,
2013-01-02 10:32:00,16.0,7.0,30.09,South,180,0.0,0.0,67,0.00,,,0.04,,2013-01-02 17:32:00,
2013-01-02 10:53:00,16.0,7.0,30.09,ESE,112,1.0,2.0,68,0.00,,,0.04,,2013-01-02 17:53:00,
2013-01-02 11:02:00,14.0,6.0,30.08,ESE,112,2.0,2.0,70,0.00,,,0.04,,2013-01-02 18:02:00,
2013-01-02 11:12:00,14.0,6.0,30.08,ESE,112,2.0,2.0,70,0.00,,,0.04,,2013-01-02 18:12:00,
2013-01-02 11:22:00,15.0,7.0,30.07,ESE,112,2.0,2.0,70,0.00,,,0.04,,2013-01-02 18:22:00,
2013-01-02 11:32:00,18.0,10.0,30.06,ESE,112,0.0,0.0,70,0.00,,,0.04,,2013-01-02 18:32:00,
2013-01-02 11:42:00,18.0,10.0,30.06,ESE,112,0.0,0.0,70,0.00,,,0.04,,2013-01-02 18:42:00,
2013-01-02 11:52:00,20.0,8.0,30.07,ESE,112,1.0,1.0,60,0.00,,,0.03,,2013-01-02 18:52:00,
2013-01-02 12:02:00,18.0,9.0,30.06,NW,315,2.0,2.0,67,0.00,,,0.03,,2013-01-02 19:02:00,
2013-01-02 12:12:00,18.0,9.0,30.06,NW,315,2.0,2.0,67,0.00,,,0.03,,2013-01-02 19:12:00,
2013-01-02 12:22:00,17.0,8.0,30.06,North,360,2.0,2.0,68,0.00,,,0.03,,2013-01-02 19:22:00,
2013-01-02 12:32:00,17.0,8.0,30.05,North,360,2.0,4.0,68,0.00,,,0.03,,2013-01-02 19:32:00,
2013-01-02 12:42:00,17.0,8.0,30.05,North,360,2.0,4.0,68,0.00,,,0.03,,2013-01-02 19:42:00,
2013-01-02 12:52:00,17.0,9.0,30.05,WNW,292,2.0,3.0,69,0.00,,,0.03,,2013-01-02 19:52:00,
2013-01-02 13:02:00,17.0,9.0,30.03,WNW,292,2.0,2.0,69,0.00,,,0.02,,2013-01-02 20:02:00,
2013-01-02 13:11:00,17.0,9.0,30.03,WNW,292,2.0,2.0,69,0.00,,,0.02,,2013-01-02 20:11:00,
2013-01-02 13:22:00,18.0,9.0,30.03,WNW,292,1.0,2.0,68,0.00,,,0.02,,2013-01-02 20:22:00,
2013-01-02 13:32:00,19.0,9.0,30.03,WNW,292,1.0,2.0,64,0.00,,,0.01,,2013-01-02 20:32:00,
2013-01-02 13:42:00,19.0,9.0,30.03,WNW,292,1.0,2.0,64,0.00,,,0.01,,2013-01-02 20:42:00,
2013-01-02 13:53:00,22.0,10.0,30.03,NW,315,1.0,2.0,60,0.00,,,0.01,,2013-01-02 20:53:00,
2013-01-02 14:02:00,21.0,10.0,30.06,North,360,2.0,3.0,61,0.00,,,0.01,,2013-01-02 21:02:00,
2013-01-02 14:12:00,21.0,10.0,30.06,North,360,2.0,3.0,61,0.00,,,0.01,,2013-01-02 21:12:00,
2013-01-02 14:22:00,20.0,11.0,30.06,NE,45,3.0,4.0,66,0.00,,,0.01,,2013-01-02 21:22:00,
2013-01-02 14:32:00,18.0,9.0,30.05,NE,45,4.0,4.0,67,0.00,,,0.00,,2013-01-02 21:32:00,
2013-01-02 14:42:00,18.0,9.0,30.05,NE,45,4.0,4.0,67,0.00,,,0.00,,2013-01-02 21:42:00,
2013-01-02 14:52:00,19.0,10.0,30.05,NE,45,2.0,2.0,68,0.00,,,0.00,,2013-01-02 21:52:00,
2013-01-02 15:02:00,19.0,10.0,30.06,NE,45,1.0,2.0,67,0.00,,,0.00,,2013-01-02 22:02:00,
2013-01-02 15:12:00,19.0,10.0,30.06,NE,45,1.0,2.0,67,0.00,,,0.00,,2013-01-02 22:12:00,
2013-01-02 15:22:00,20.0,10.0,30.06,NE,45,1.0,2.0,64,0.00,,,0.00,,2013-01-02 22:22:00,
2013-01-02 15:32:00,22.0,11.0,30.07,NE,45,0.0,1.0,62,0.00,,,0.00,,2013-01-02 22:32:00,
2013-01-02 15:42:00,22.0,11.0,30.07,NE,45,0.0,1.0,62,0.00,,,0.00,,2013-01-02 22:42:00,
2013-01-02 15:52:00,23.0,10.0,30.08,NE,45,1.0,2.0,57,0.00,,,0.00,,2013-01-02 22:52:00,
2013-01-02 16:02:00,23.0,11.0,30.08,NE,45,0.0,1.0,59,0.00,,,0.00,,2013-01-02 23:02:00,
2013-01-02 16:12:00,20.0,10.0,30.08,NNW,337,2.0,2.0,64,0.00,,,0.00,,2013-01-02 23:12:00,
2013-01-02 16:22:00,20.0,10.0,30.08,NNW,337,2.0,2.0,64,0.00,,,0.00,,2013-01-02 23:22:00,
2013-01-02 16:32:00,18.0,9.0,30.07,NNW,337,1.0,2.0,68,0.00,,,0.00,,2013-01-02 23:32:00,
2013-01-02 16:42:00,18.0,9.0,30.07,NNW,337,1.0,2.0,68,0.00,,,0.00,,2013-01-02 23:42:00,
2013-01-02 16:52:00,17.0,9.0,30.06,NNW,337,1.0,2.0,69,0.00,,,0.00,,2013-01-02 23:52:00,
2013-01-02 17:02:00,15.0,8.0,30.05,NNW,337,0.0,0.0,74,0.00,,,0.00,,2013-01-03 00:02:00,
2013-01-02 17:12:00,15.0,8.0,30.05,NNW,337,0.0,0.0,74,0.00,,,0.00,,2013-01-03 00:12:00,
2013-01-02 17:22:00,14.0,8.0,30.03,NNW,337,0.0,0.0,78,0.00,,,0.00,,2013-01-03 00:22:00,
2013-01-02 17:52:00,10.0,6.0,30.01,NNW,337,1.0,2.0,85,0.00,,,0.00,,2013-01-03 00:52:00,
2013-01-02 18:02:00,8.0,5.0,30.02,SSE,157,2.0,4.0,86,0.00,,,0.00,,2013-01-03 01:02:00,
2013-01-02 18:22:00,6.0,3.0,30.02,SSE,157,4.0,4.0,87,0.00,,,0.00,,2013-01-03 01:22:00,
2013-01-02 18:32:00,5.0,2.0,30.01,SSE,157,5.0,6.0,89,0.00,,,0.00,,2013-01-03 01:32:00,
2013-01-02 18:42:00,5.0,2.0,30.01,SSE,157,5.0,6.0,89,0.00,,,0.00,,2013-01-03 01:42:00,
2013-01-02 18:52:00,5.0,3.0,30.01,SSE,157,4.0,5.0,90,0.00,,,0.00,,2013-01-03 01:52:00,
2013-01-02 19:01:00,6.0,3.0,30.02,SSE,157,4.0,4.0,89,0.00,,,0.00,,2013-01-03 02:01:00,
2013-01-02 19:11:00,6.0,3.0,30.02,SSE,157,4.0,4.0,89,0.00,,,0.00,,2013-01-03 02:11:00,
2013-01-02 19:22:00,8.0,4.0,30.02,SSE,157,2.0,2.0,83,0.00,,,0.00,,2013-01-03 02:22:00,
2013-01-02 19:32:00,8.0,4.0,30.02,South,180,4.0,6.0,85,0.00,,,0.00,,2013-01-03 02:32:00,
2013-01-02 19:42:00,8.0,4.0,30.02,South,180,4.0,6.0,85,0.00,,,0.00,,2013-01-03 02:42:00,
2013-01-02 19:52:00,8.0,4.0,30.02,South,180,4.0,6.0,85,0.00,,,0.00,,2013-01-03 02:52:00,
2013-01-02 20:02:00,4.0,0.0,30.02,ESE,112,2.0,2.0,84,0.00,,,0.00,,2013-01-03 03:02:00,
2013-01-02 20:11:00,5.0,2.0,30.01,SSE,157,4.0,4.0,86,0.00,,,0.00,,2013-01-03 03:11:00,
2013-01-02 20:22:00,5.0,2.0,30.01,SSE,157,4.0,4.0,86,0.00,,,0.00,,2013-01-03 03:22:00,
2013-01-02 20:32:00,4.0,1.0,30.01,SSE,157,2.0,2.0,86,0.00,,,0.00,,2013-01-03 03:32:00,
2013-01-02 20:52:00,4.0,1.0,30.01,SSE,157,2.0,3.0,87,0.00,,,0.00,,2013-01-03 03:52:00,
2013-01-02 21:01:00,3.0,0.0,30.02,SSE,157,4.0,5.0,86,0.00,,,0.00,,2013-01-03 04:01:00,
2013-01-02 21:11:00,3.0,0.0,30.02,SSE,157,4.0,5.0,86,0.00,,,0.00,,2013-01-03 04:11:00,
2013-01-02 21:22:00,2.0,-1.0,30.02,SE,135,3.0,3.0,88,0.00,,,0.00,,2013-01-03 04:22:00,
2013-01-02 21:32:00,6.0,3.0,30.01,SE,135,1.0,2.0,89,0.00,,,0.00,,2013-01-03 04:32:00,
2013-01-02 21:42:00,6.0,3.0,30.01,SE,135,1.0,2.0,89,0.00,,,0.00,,2013-01-03 04:42:00,
2013-01-02 21:52:00,6.0,2.0,30.02,SE,135,2.0,2.0,85,0.00,,,0.00,,2013-01-03 04:52:00,
2013-01-02 22:03:00,4.0,1.0,30.03,East,90,3.0,4.0,85,0.00,,,0.00,,2013-01-03 05:03:00,
2013-01-02 22:12:00,6.0,2.0,30.03,South,180,2.0,5.0,85,0.00,,,0.00,,2013-01-03 05:12:00,
2013-01-02 22:22:00,6.0,2.0,30.03,South,180,2.0,5.0,85,0.00,,,0.00,,2013-01-03 05:22:00,
2013-01-02 22:33:00,-3.0,-6.0,30.03,South,180,5.0,6.0,86,0.00,,,0.00,,2013-01-03 05:33:00,
2013-01-02 22:42:00,-3.0,-6.0,30.03,South,180,5.0,6.0,86,0.00,,,0.00,,2013-01-03 05:42:00,
2013-01-02 22:52:00,-2.0,-4.0,30.03,SSE,157,3.0,4.0,91,0.00,,,0.00,,2013-01-03 05:52:00,
2013-01-02 23:02:00,0.0,-2.0,30.03,SSE,157,4.0,5.0,90,0.00,,,0.00,,2013-01-03 06:02:00,
2013-01-02 23:11:00,0.0,-2.0,30.03,SSE,157,4.0,5.0,90,0.00,,,0.00,,2013-01-03 06:11:00,
2013-01-02 23:22:00,1.0,-2.0,30.03,SSE,157,4.0,4.0,88,0.00,,,0.00,,2013-01-03 06:22:00,
2013-01-02 23:32:00,3.0,0.0,30.03,SSE,157,3.0,4.0,86,0.00,,,0.00,,2013-01-03 06:32:00,
2013-01-02 23:42:00,3.0,0.0,30.03,SSE,157,3.0,4.0,86,0.00,,,0.00,,2013-01-03 06:42:00,
2013-01-02 23:52:00,2.0,-1.0,30.05,SSE,157,2.0,3.0,86,0.00,,,0.00,,2013-01-03 06:52:00,